createdAt,value
2023-04-28T00:01:21.158Z,50.59
2023-04-28T00:03:53.638Z,50.54
2023-04-28T00:06:26.408Z,50.29
2023-04-28T00:08:58.925Z,50.21
2023-04-28T00:11:31.128Z,50.35
2023-04-28T00:14:03.457Z,50.67
2023-04-28T00:16:36.277Z,50.82
2023-04-28T00:19:09.664Z,50.95
2023-04-28T00:21:41.974Z,51.19
2023-04-28T00:24:14.536Z,51.22
2023-04-28T00:26:46.963Z,51.31
2023-04-28T00:29:19.338Z,51.26
2023-04-28T00:31:51.670Z,51.42
2023-04-28T00:34:24.068Z,51.49
2023-04-28T00:36:56.475Z,51.51
2023-04-28T00:39:28.880Z,51.21
2023-04-28T00:42:02.298Z,50.97
2023-04-28T00:44:34.589Z,51.21
2023-04-28T00:47:07.263Z,51.51
2023-04-28T00:49:39.841Z,51.11
2023-04-28T00:52:12.702Z,50.99
2023-04-28T00:54:45.132Z,50.82
2023-04-28T00:57:17.449Z,50.88
2023-04-28T00:59:49.752Z,50.78
2023-04-28T01:02:22.352Z,50.82
2023-04-28T01:04:57.484Z,50.81
2023-04-28T01:07:29.854Z,50.71
2023-04-28T01:10:02.340Z,50.69
2023-04-28T01:12:34.718Z,51.04
2023-04-28T01:15:09.115Z,50.89
2023-04-28T01:17:41.548Z,51.33
2023-04-28T01:20:15.268Z,51.58
2023-04-28T01:22:47.606Z,51.60
2023-04-28T01:25:20.388Z,51.84
2023-04-28T01:27:52.905Z,51.79
2023-04-28T01:30:25.173Z,51.73
2023-04-28T01:32:57.422Z,51.17
2023-04-28T01:35:29.883Z,51.31
2023-04-28T01:38:02.162Z,51.68
2023-04-28T01:40:34.918Z,51.77
2023-04-28T01:43:07.302Z,51.88
2023-04-28T01:45:39.617Z,51.93
2023-04-28T01:48:12.114Z,51.90
2023-04-28T01:50:44.513Z,51.99
2023-04-28T01:53:20.703Z,52.05
2023-04-28T01:55:53.048Z,52.03
2023-04-28T01:58:26.990Z,51.64
2023-04-28T02:00:59.908Z,51.44
2023-04-28T02:03:32.384Z,51.77
2023-04-28T02:06:05.230Z,52.04
2023-04-28T02:08:37.467Z,52.13
2023-04-28T02:11:09.730Z,52.25
2023-04-28T02:13:42.440Z,52.34
2023-04-28T02:16:14.849Z,52.36
2023-04-28T02:18:47.306Z,52.51
2023-04-28T02:21:19.797Z,52.61
2023-04-28T02:23:52.302Z,52.64
2023-04-28T02:26:24.638Z,53.05
2023-04-28T02:28:57.015Z,53.13
2023-04-28T02:31:29.302Z,53.05
2023-04-28T02:34:01.923Z,53.01
2023-04-28T02:36:34.420Z,53.12
2023-04-28T02:39:06.976Z,53.27
2023-04-28T02:41:39.244Z,53.13
2023-04-28T02:44:11.564Z,53.34
2023-04-28T02:46:44.044Z,53.36
2023-04-28T02:49:16.551Z,53.14
2023-04-28T02:51:48.845Z,53.32
2023-04-28T02:54:27.749Z,53.31
2023-04-28T02:57:01.538Z,53.28
2023-04-28T02:59:33.968Z,53.27
2023-04-28T03:02:06.303Z,53.49
2023-04-28T03:04:38.783Z,53.34
2023-04-28T03:07:11.178Z,53.43
2023-04-28T03:09:43.523Z,53.47
2023-04-28T03:12:15.849Z,53.48
2023-04-28T03:14:48.240Z,53.54
2023-04-28T03:17:20.935Z,53.39
2023-04-28T03:19:53.252Z,53.51
2023-04-28T03:22:25.692Z,53.51
2023-04-28T03:24:57.960Z,53.70
2023-04-28T03:27:30.641Z,53.69
2023-04-28T03:30:02.812Z,53.85
2023-04-28T03:32:35.139Z,53.98
2023-04-28T03:35:08.087Z,54.07
2023-04-28T03:37:40.889Z,54.15
2023-04-28T03:40:14.517Z,54.36
2023-04-28T03:42:47.064Z,54.50
2023-04-28T03:45:19.636Z,54.32
2023-04-28T03:47:51.915Z,54.73
2023-04-28T03:50:26.535Z,54.87
2023-04-28T03:52:59.314Z,55.02
2023-04-28T03:55:31.835Z,55.15
2023-04-28T03:58:04.468Z,54.99
2023-04-28T04:00:36.852Z,55.27
2023-04-28T04:03:09.446Z,55.39
2023-04-28T04:05:42.729Z,55.45
2023-04-28T04:08:15.136Z,55.57
2023-04-28T04:10:47.596Z,55.20
2023-04-28T04:13:20.019Z,55.40
2023-04-28T04:15:53.381Z,55.52
2023-04-28T04:18:25.853Z,55.55
2023-04-28T04:20:58.157Z,55.48
2023-04-28T04:23:30.518Z,55.68
2023-04-28T04:26:02.836Z,55.63
2023-04-28T04:28:35.170Z,55.73
2023-04-28T04:31:08.691Z,55.66
2023-04-28T04:33:41.360Z,55.82
2023-04-28T04:36:13.743Z,56.10
2023-04-28T04:38:46.170Z,56.09
2023-04-28T04:41:20.851Z,56.14
2023-04-28T04:43:53.138Z,56.34
2023-04-28T04:46:25.807Z,56.14
2023-04-28T04:48:58.281Z,56.00
2023-04-28T04:51:30.667Z,56.13
2023-04-28T04:54:02.961Z,56.34
2023-04-28T04:56:35.371Z,56.24
2023-04-28T04:59:08.566Z,56.27
2023-04-28T05:01:40.936Z,56.41
2023-04-28T05:04:13.627Z,56.35
2023-04-28T05:06:46.248Z,56.45
2023-04-28T05:09:18.690Z,56.40
2023-04-28T05:11:51.000Z,56.52
2023-04-28T05:14:23.348Z,56.62
2023-04-28T05:16:55.927Z,56.43
2023-04-28T05:19:28.368Z,56.56
2023-04-28T05:22:01.839Z,56.60
2023-04-28T05:24:34.366Z,56.62
2023-04-28T05:27:06.790Z,56.49
2023-04-28T05:29:39.250Z,56.48
2023-04-28T05:32:11.582Z,56.51
2023-04-28T05:34:43.947Z,56.47
2023-04-28T05:37:16.174Z,56.33
2023-04-28T05:39:48.543Z,56.45
2023-04-28T05:42:20.894Z,56.51
2023-04-28T05:44:53.124Z,56.47
2023-04-28T05:47:25.919Z,56.28
2023-04-28T05:49:58.319Z,56.30
2023-04-28T05:52:30.823Z,56.17
2023-04-28T05:55:03.616Z,56.22
2023-04-28T05:57:49.334Z,56.12
2023-04-28T06:00:24.883Z,55.84
2023-04-28T06:02:57.521Z,55.84
2023-04-28T06:05:30.738Z,55.67
2023-04-28T06:08:03.618Z,55.84
2023-04-28T06:10:36.086Z,55.77
2023-04-28T06:13:09.266Z,55.35
2023-04-28T06:15:41.562Z,54.94
2023-04-28T06:18:16.258Z,54.68
2023-04-28T06:20:48.652Z,54.43
2023-04-28T06:23:20.845Z,54.31
2023-04-28T06:25:53.233Z,54.17
2023-04-28T06:28:25.635Z,54.09
2023-04-28T06:31:00.034Z,54.15
2023-04-28T06:33:32.474Z,53.96
2023-04-28T06:36:05.280Z,53.74
2023-04-28T06:38:37.697Z,53.27
2023-04-28T06:41:17.113Z,53.00
2023-04-28T06:43:51.006Z,52.76
2023-04-28T06:46:23.482Z,52.64
2023-04-28T06:48:56.114Z,52.42
2023-04-28T06:51:28.908Z,52.50
2023-04-28T06:54:01.383Z,52.33
2023-04-28T06:56:33.792Z,52.23
2023-04-28T06:59:06.280Z,52.17
2023-04-28T07:01:38.704Z,51.99
2023-04-28T07:04:11.285Z,51.99
2023-04-28T07:06:44.011Z,51.91
2023-04-28T07:09:18.112Z,51.71
2023-04-28T07:11:50.392Z,51.54
2023-04-28T07:14:28.256Z,51.31
2023-04-28T07:17:01.166Z,51.27
2023-04-28T07:19:33.563Z,51.03
2023-04-28T07:22:05.951Z,50.50
2023-04-28T07:24:38.286Z,50.15
2023-04-28T07:27:10.566Z,50.22
2023-04-28T07:29:43.002Z,50.08
2023-04-28T07:32:15.422Z,50.06
2023-04-28T07:34:48.226Z,49.41
2023-04-28T07:37:21.048Z,49.91
2023-04-28T07:39:53.565Z,49.56
2023-04-28T07:42:26.148Z,49.21
2023-04-28T07:44:59.046Z,49.30
2023-04-28T07:47:31.692Z,49.01
2023-04-28T07:50:05.446Z,48.58
2023-04-28T07:52:38.228Z,48.45
2023-04-28T07:55:11.923Z,48.13
2023-04-28T07:57:44.808Z,47.99
2023-04-28T08:00:19.500Z,47.63
2023-04-28T08:02:59.499Z,48.00
2023-04-28T08:05:32.606Z,47.41
2023-04-28T08:08:05.448Z,46.92
2023-04-28T08:10:38.313Z,46.34
2023-04-28T08:13:13.334Z,46.22
2023-04-28T08:16:03.322Z,46.43
2023-04-28T08:18:53.626Z,45.59
2023-04-28T08:21:26.064Z,45.66
2023-04-28T08:23:58.317Z,45.00
2023-04-28T08:26:33.709Z,44.44
2023-04-28T08:29:06.164Z,44.82
2023-04-28T08:31:38.703Z,43.28
2023-04-28T08:34:11.057Z,42.67
2023-04-28T08:36:43.419Z,43.30
2023-04-28T08:39:16.171Z,43.91
2023-04-28T08:41:48.639Z,43.91
2023-04-28T08:44:23.760Z,43.52
2023-04-28T08:47:01.373Z,43.12
2023-04-28T08:49:38.379Z,42.94
2023-04-28T08:52:13.972Z,42.81
2023-04-28T08:54:49.729Z,42.00
2023-04-28T08:57:23.695Z,41.62
2023-04-28T08:59:57.022Z,42.01
2023-04-28T09:02:29.612Z,42.15
2023-04-28T09:05:02.525Z,41.95
2023-04-28T09:07:35.407Z,42.11
2023-04-28T09:10:22.501Z,42.01
2023-04-28T09:12:58.125Z,41.92
2023-04-28T09:15:34.134Z,42.18
2023-04-28T09:18:08.204Z,41.90
2023-04-28T09:20:43.496Z,41.90
2023-04-28T09:23:21.237Z,41.60
2023-04-28T09:26:13.075Z,41.92
2023-04-28T09:28:45.505Z,41.89
2023-04-28T09:31:28.813Z,41.76
2023-04-28T09:34:01.825Z,41.64
2023-04-28T09:36:34.229Z,41.46
2023-04-28T09:39:06.692Z,41.14
2023-04-28T09:41:42.738Z,40.92
2023-04-28T09:44:21.513Z,40.97
2023-04-28T09:46:53.895Z,40.92
2023-04-28T09:49:26.230Z,40.80
2023-04-28T09:52:15.203Z,40.66
2023-04-28T09:54:47.866Z,40.55
2023-04-28T09:57:21.434Z,40.69
2023-04-28T09:59:54.666Z,40.56
2023-04-28T10:05:03.624Z,40.41
2023-04-28T10:07:36.907Z,40.75
2023-04-28T10:10:10.996Z,40.73
2023-04-28T10:12:44.951Z,40.56
2023-04-28T10:15:17.467Z,40.35
2023-04-28T10:17:52.112Z,40.37
2023-04-28T10:20:26.269Z,40.31
2023-04-28T10:23:18.209Z,40.32
2023-04-28T10:25:54.396Z,40.30
2023-04-28T10:28:27.874Z,39.87
2023-04-28T10:31:17.723Z,40.09
2023-04-28T10:33:50.868Z,40.33
2023-04-28T10:36:51.095Z,40.38
2023-04-28T10:39:23.566Z,40.05
2023-04-28T10:41:56.136Z,39.58
2023-04-28T10:44:46.947Z,39.62
2023-04-28T10:47:19.264Z,39.55
2023-04-28T10:50:12.489Z,39.17
2023-04-28T10:52:54.199Z,39.42
2023-04-28T10:55:36.647Z,39.35
2023-04-28T10:58:37.736Z,39.33
2023-04-28T11:01:32.195Z,39.33
2023-04-28T11:04:13.254Z,39.32
2023-04-28T11:06:47.108Z,39.17
2023-04-28T11:09:52.861Z,38.81
2023-04-28T11:12:25.203Z,39.02
2023-04-28T11:14:57.638Z,38.48
2023-04-28T11:17:43.289Z,38.32
2023-04-28T11:20:16.711Z,38.60
2023-04-28T11:22:53.793Z,38.23
2023-04-28T11:25:26.138Z,38.18
2023-04-28T11:28:08.834Z,37.98
2023-04-28T11:30:41.242Z,38.24
2023-04-28T11:33:14.173Z,38.17
2023-04-28T11:35:46.897Z,38.15
2023-04-28T11:38:19.218Z,37.84
2023-04-28T11:41:01.254Z,37.60
2023-04-28T11:43:46.510Z,36.79
2023-04-28T11:46:25.078Z,37.12
2023-04-28T11:49:07.695Z,37.13
2023-04-28T11:51:41.779Z,37.08
2023-04-28T11:54:15.192Z,37.01
2023-04-28T11:56:47.595Z,37.05
2023-04-28T12:02:01.179Z,37.11
2023-04-28T12:04:36.617Z,36.99
2023-04-28T12:07:11.882Z,36.96
2023-04-28T12:09:45.927Z,36.64
2023-04-28T12:12:40.159Z,36.75
2023-04-28T12:15:19.979Z,36.63
2023-04-28T12:17:52.884Z,36.66
2023-04-28T12:20:41.377Z,36.40
2023-04-28T12:23:13.733Z,36.26
2023-04-28T12:25:49.857Z,36.15
2023-04-28T12:28:22.025Z,35.92
2023-04-28T12:31:08.544Z,36.00
2023-04-28T12:33:41.336Z,35.96
2023-04-28T12:36:13.825Z,36.01
2023-04-28T12:38:52.439Z,35.73
2023-04-28T12:41:25.546Z,36.02
2023-04-28T12:43:58.335Z,35.62
2023-04-28T12:46:32.167Z,35.79
2023-04-28T12:49:04.554Z,35.67
2023-04-28T12:51:38.972Z,35.81
2023-04-28T12:54:11.620Z,35.72
2023-04-28T12:56:43.947Z,35.41
2023-04-28T12:59:16.551Z,35.46
2023-04-28T13:01:49.175Z,35.52
2023-04-28T13:04:21.879Z,35.47
2023-04-28T13:06:55.591Z,35.41
2023-04-28T13:09:28.429Z,35.08
2023-04-28T13:12:04.144Z,35.12
2023-04-28T13:14:36.347Z,35.24
2023-04-28T13:17:09.187Z,35.31
2023-04-28T13:19:41.469Z,35.14
2023-04-28T13:22:13.899Z,35.20
2023-04-28T13:24:46.857Z,35.01
2023-04-28T13:27:20.219Z,35.03
2023-04-28T13:29:52.947Z,35.11
2023-04-28T13:32:25.318Z,34.88
2023-04-28T13:34:57.763Z,34.78
2023-04-28T13:37:30.062Z,34.92
2023-04-28T13:40:04.334Z,34.89
2023-04-28T13:42:37.027Z,34.53
2023-04-28T13:45:11.185Z,34.57
2023-04-28T13:47:43.513Z,34.42
2023-04-28T13:50:16.052Z,34.69
2023-04-28T13:52:48.659Z,34.76
2023-04-28T13:55:27.627Z,34.78
2023-04-28T13:58:04.795Z,34.67
2023-04-28T14:00:37.776Z,34.65
2023-04-28T14:03:10.378Z,34.69
2023-04-28T14:05:49.428Z,34.68
2023-04-28T14:08:23.328Z,34.60
2023-04-28T14:10:56.084Z,34.63
2023-04-28T14:13:29.859Z,34.63
2023-04-28T14:16:02.344Z,34.38
2023-04-28T14:18:34.616Z,34.41
2023-04-28T14:21:08.611Z,34.50
2023-04-28T14:23:41.130Z,34.62
2023-04-28T14:26:13.373Z,34.56
2023-04-28T14:28:45.797Z,34.51
2023-04-28T14:31:18.259Z,34.54
2023-04-28T14:33:50.659Z,34.57
2023-04-28T14:36:23.098Z,34.43
2023-04-28T14:38:55.368Z,34.49
2023-04-28T14:41:27.706Z,34.64
2023-04-28T14:43:59.984Z,34.56
2023-04-28T14:46:32.392Z,34.55
2023-04-28T14:49:06.130Z,34.39
2023-04-28T14:51:38.449Z,34.48
2023-04-28T14:54:11.785Z,34.48
2023-04-28T14:56:44.222Z,34.15
2023-04-28T14:59:16.486Z,34.21
2023-04-28T15:01:50.812Z,34.49
2023-04-28T15:04:28.871Z,34.41
2023-04-28T15:07:02.125Z,34.41
2023-04-28T15:09:34.485Z,34.46
2023-04-28T15:12:10.034Z,34.43
2023-04-28T15:14:42.513Z,34.41
2023-04-28T15:17:15.294Z,34.36
2023-04-28T15:19:47.750Z,34.27
2023-04-28T15:22:24.632Z,34.36
2023-04-28T15:24:57.027Z,34.44
2023-04-28T15:27:29.657Z,34.42
2023-04-28T15:30:02.748Z,34.39
2023-04-28T15:32:35.386Z,34.13
2023-04-28T15:35:10.712Z,34.15
2023-04-28T15:37:47.745Z,34.25
2023-04-28T15:40:21.506Z,34.24
2023-04-28T15:42:53.913Z,34.07
2023-04-28T15:45:26.582Z,34.04
2023-04-28T15:47:58.996Z,34.08
2023-04-28T15:50:32.014Z,33.94
2023-04-28T15:53:04.358Z,34.02
2023-04-28T15:55:39.838Z,33.99
2023-04-28T15:58:12.293Z,33.96
2023-04-28T16:00:46.048Z,34.01
2023-04-28T16:03:19.253Z,34.04
2023-04-28T16:05:54.299Z,34.05
2023-04-28T16:08:26.580Z,34.18
2023-04-28T16:10:58.929Z,34.21
2023-04-28T16:13:33.143Z,34.18
2023-04-28T16:16:09.795Z,34.25
2023-04-28T16:18:44.445Z,34.13
2023-04-28T16:21:18.036Z,34.24
2023-04-28T16:23:51.491Z,34.27
2023-04-28T16:26:24.217Z,34.20
2023-04-28T16:28:56.614Z,34.14
2023-04-28T16:31:29.059Z,34.28
2023-04-28T16:34:01.470Z,34.30
2023-04-28T16:36:34.727Z,34.33
2023-04-28T16:39:07.219Z,34.45
2023-04-28T16:41:39.524Z,34.45
2023-04-28T16:44:12.295Z,34.55
2023-04-28T16:46:44.639Z,34.68
2023-04-28T16:49:16.985Z,34.70
2023-04-28T16:52:00.983Z,34.81
2023-04-28T16:54:34.392Z,34.84
2023-04-28T16:57:07.859Z,34.99
2023-04-28T16:59:40.300Z,35.04
2023-04-28T17:02:12.750Z,35.05
2023-04-28T17:04:45.143Z,35.18
2023-04-28T17:07:17.445Z,35.21
2023-04-28T17:09:50.016Z,35.29
2023-04-28T17:12:23.447Z,35.22
2023-04-28T17:14:55.842Z,35.29
2023-04-28T17:17:29.304Z,35.44
2023-04-28T17:20:02.481Z,35.45
2023-04-28T17:22:36.071Z,35.52
2023-04-28T17:25:10.120Z,35.63
2023-04-28T17:27:42.461Z,35.75
2023-04-28T17:30:15.406Z,35.93
2023-04-28T17:32:47.804Z,35.93
2023-04-28T17:35:20.370Z,36.00
2023-04-28T17:37:52.808Z,36.06
2023-04-28T17:40:25.533Z,36.06
2023-04-28T17:42:58.755Z,36.27
2023-04-28T17:45:31.091Z,36.25
2023-04-28T17:48:04.234Z,36.36
2023-04-28T17:50:36.773Z,36.45
2023-04-28T17:53:09.004Z,36.66
2023-04-28T17:55:41.444Z,36.68
2023-04-28T17:58:13.838Z,36.80
2023-04-28T18:00:46.572Z,37.01
2023-04-28T18:03:18.884Z,37.06
2023-04-28T18:05:51.504Z,37.07
2023-04-28T18:08:23.794Z,37.30
2023-04-28T18:10:56.478Z,37.53
2023-04-28T18:13:28.915Z,37.51
2023-04-28T18:16:01.361Z,37.63
2023-04-28T18:18:35.608Z,37.78
2023-04-28T18:21:08.372Z,37.82
2023-04-28T18:23:40.713Z,37.92
2023-04-28T18:26:13.063Z,37.99
2023-04-28T18:28:49.196Z,38.02
2023-04-28T18:31:21.619Z,38.14
2023-04-28T18:33:55.397Z,38.28
2023-04-28T18:36:27.995Z,38.35
2023-04-28T18:39:01.916Z,38.50
2023-04-28T18:41:35.093Z,38.53
2023-04-28T18:44:07.443Z,38.62
2023-04-28T18:46:40.007Z,38.71
2023-04-28T18:49:12.881Z,38.76
2023-04-28T18:51:45.277Z,38.81
2023-04-28T18:54:18.021Z,39.12
2023-04-28T18:56:52.674Z,39.09
2023-04-28T18:59:26.492Z,39.23
2023-04-28T19:01:58.857Z,39.43
2023-04-28T19:04:32.338Z,39.50
2023-04-28T19:07:04.704Z,39.58
2023-04-28T19:09:37.024Z,39.70
2023-04-28T19:12:09.543Z,39.94
2023-04-28T19:14:42.397Z,39.86
2023-04-28T19:17:15.497Z,40.03
2023-04-28T19:19:48.019Z,40.16
2023-04-28T19:22:35.438Z,40.22
2023-04-28T19:25:09.180Z,40.13
2023-04-28T19:27:43.134Z,40.08
2023-04-28T19:30:16.896Z,40.23
2023-04-28T19:32:49.293Z,40.11
2023-04-28T19:35:22.382Z,40.22
2023-04-28T19:37:55.994Z,40.34
2023-04-28T19:40:29.144Z,40.44
2023-04-28T19:43:01.597Z,40.23
2023-04-28T19:45:35.215Z,40.65
2023-04-28T19:48:08.210Z,40.69
2023-04-28T19:50:40.584Z,40.84
2023-04-28T19:53:13.064Z,40.88
2023-04-28T19:55:45.398Z,40.92
2023-04-28T19:58:18.446Z,40.89
2023-04-28T20:00:51.088Z,40.92
2023-04-28T20:03:23.612Z,40.67
2023-04-28T20:05:56.446Z,40.49
2023-04-28T20:08:29.646Z,40.45
2023-04-28T20:11:01.891Z,40.62
2023-04-28T20:13:34.982Z,40.73
2023-04-28T20:16:07.393Z,40.49
2023-04-28T20:18:39.824Z,40.46
2023-04-28T20:21:12.129Z,40.33
2023-04-28T20:23:44.386Z,40.34
2023-04-28T20:26:17.781Z,40.15
2023-04-28T20:28:50.656Z,40.03
2023-04-28T20:31:23.784Z,39.91
2023-04-28T20:33:56.241Z,39.89
2023-04-28T20:36:29.919Z,39.88
2023-04-28T20:39:02.287Z,39.75
2023-04-28T20:41:34.570Z,39.85
2023-04-28T20:44:06.805Z,39.81
2023-04-28T20:46:39.182Z,39.72
2023-04-28T20:49:12.508Z,39.70
2023-04-28T20:51:46.218Z,39.80
2023-04-28T20:54:18.527Z,39.75
2023-04-28T20:56:50.880Z,39.74
2023-04-28T20:59:23.139Z,39.76
2023-04-28T21:01:55.861Z,39.83
2023-04-28T21:04:28.579Z,39.86
2023-04-28T21:07:00.970Z,39.75
2023-04-28T21:09:33.359Z,39.83
2023-04-28T21:12:06.069Z,39.86
2023-04-28T21:14:38.509Z,39.92
2023-04-28T21:17:10.872Z,40.06
2023-04-28T21:19:43.218Z,40.04
2023-04-28T21:22:15.529Z,39.92
2023-04-28T21:24:47.974Z,39.91
2023-04-28T21:27:20.318Z,39.89
2023-04-28T21:29:52.982Z,39.88
2023-04-28T21:32:25.689Z,39.85
2023-04-28T21:34:58.147Z,39.96
2023-04-28T21:37:31.839Z,39.99
2023-04-28T21:40:04.533Z,39.98
2023-04-28T21:42:36.840Z,40.02
2023-04-28T21:45:11.050Z,40.00
2023-04-28T21:47:43.674Z,40.00
2023-04-28T21:50:16.360Z,40.00
2023-04-28T21:52:48.664Z,40.02
2023-04-28T21:55:21.012Z,40.13
2023-04-28T21:57:54.239Z,40.04
2023-04-28T22:00:26.937Z,39.96
2023-04-28T22:03:00.495Z,40.08
2023-04-28T22:05:32.938Z,40.09
2023-04-28T22:08:05.758Z,40.17
2023-04-28T22:10:38.128Z,40.17
2023-04-28T22:13:10.507Z,40.04
2023-04-28T22:15:43.125Z,40.18
2023-04-28T22:18:15.365Z,40.08
2023-04-28T22:20:50.177Z,40.17
2023-04-28T22:23:22.433Z,40.23
2023-04-28T22:25:54.767Z,40.20
2023-04-28T22:28:27.699Z,40.20
2023-04-28T22:31:00.134Z,40.28
2023-04-28T22:33:33.006Z,40.25
2023-04-28T22:36:05.569Z,40.33
2023-04-28T22:38:37.861Z,40.36
2023-04-28T22:41:10.232Z,40.32
2023-04-28T22:43:42.997Z,40.43
2023-04-28T22:46:15.259Z,40.44
2023-04-28T22:48:47.540Z,40.37
2023-04-28T22:51:19.908Z,40.39
2023-04-28T22:53:54.371Z,40.40
2023-04-28T22:56:26.859Z,40.48
2023-04-28T22:58:59.302Z,40.48
2023-04-28T23:01:32.127Z,40.51
2023-04-28T23:04:04.749Z,40.44
2023-04-28T23:06:37.130Z,40.53
2023-04-28T23:09:09.337Z,40.65
2023-04-28T23:11:41.621Z,40.59
2023-04-28T23:14:13.921Z,40.54
2023-04-28T23:16:46.337Z,40.56
2023-04-28T23:19:20.624Z,40.57
2023-04-28T23:21:54.509Z,40.58
2023-04-28T23:24:27.926Z,40.66
2023-04-28T23:27:00.694Z,40.71
2023-04-28T23:29:33.254Z,40.71
2023-04-28T23:32:06.060Z,40.59
2023-04-28T23:34:41.804Z,40.85
2023-04-28T23:37:12.606Z,40.77
2023-04-28T23:39:44.845Z,40.70
2023-04-28T23:42:17.610Z,40.91
2023-04-28T23:44:50.133Z,40.88
2023-04-28T23:47:22.670Z,40.85
2023-04-28T23:49:55.014Z,40.80
2023-04-28T23:52:27.297Z,40.84
2023-04-28T23:54:59.652Z,40.87
2023-04-28T23:57:31.943Z,40.81
